Time;durP1;ratioP1;P1;durP2;ratioP2;P2;SDS_P1;SDS_P2;PMS_P1;PMS_P2;Temp;Humidity;BMP_temperature;BMP_pressure;BME280_temperature;BME280_humidity;BME280_pressure;Samples;Min_cycle;Max_cycle;Signal;HPM_P1;HPM_P2
2021/05/10 00:00:29;;;;;;;;;;;14.40;97.40;;;;;;5094068;28;19923;-73
2021/05/10 00:02:55;;;;;;;;;;;14.40;97.50;;;;;;5094053;28;19958;-73
2021/05/10 00:05:20;;;;;;;;;;;14.50;97.40;;;;;;5093827;28;19934;-74
2021/05/10 00:07:46;;;;;;;;;;;14.50;97.30;;;;;;5092703;28;19908;-73
2021/05/10 00:10:11;;;;;;;;;;;14.50;97.40;;;;;;5089111;28;20043;-74
2021/05/10 00:12:37;;;;;;;;;;;14.60;97.50;;;;;;5092519;28;19919;-73
2021/05/10 00:15:03;;;;;;;;;;;14.60;97.60;;;;;;5092739;28;19916;-73
2021/05/10 00:17:28;;;;;;;;;;;14.70;97.80;;;;;;5093790;28;20379;-73
2021/05/10 00:19:55;;;;;;;;;;;14.70;97.90;;;;;;5093626;28;19912;-73
2021/05/10 00:22:20;;;;;;;;;;;14.70;98.10;;;;;;5093624;28;19915;-73
2021/05/10 00:24:46;;;;;;;;;;;14.70;98.10;;;;;;5093596;28;19908;-73
2021/05/10 00:27:11;;;;;;;;;;;14.70;98.60;;;;;;5092386;28;19970;-72
2021/05/10 00:29:37;;;;;;;;;;;14.60;98.60;;;;;;5093399;28;20353;-72
2021/05/10 00:32:02;;;;;;;;;;;14.50;98.80;;;;;;5093412;28;19916;-73
2021/05/10 00:34:28;;;;;;;;;;;14.50;99.60;;;;;;5093564;28;19999;-73
2021/05/10 00:36:54;;;;;;;;;;;14.30;99.80;;;;;;5092283;28;19909;-73
2021/05/10 00:39:19;;;;;;;;;;;14.20;99.90;;;;;;5093394;28;19912;-73
2021/05/10 00:41:45;;;;;;;;;;;14.00;99.90;;;;;;5090212;28;19915;-73
2021/05/10 00:44:10;;;;;;;;;;;13.90;99.90;;;;;;5092773;28;20285;-73
2021/05/10 00:46:37;;;;;;;;;;;13.70;99.90;;;;;;5090943;28;19908;-74
2021/05/10 00:49:03;;;;;;;;;;;13.70;99.90;;;;;;5093312;28;19908;-73
2021/05/10 00:51:28;;;;;;;;;;;13.50;99.90;;;;;;5093150;28;19908;-73
2021/05/10 00:53:54;;;;;;;;;;;13.50;99.90;;;;;;5092792;28;19962;-73
2021/05/10 00:56:20;;;;;;;;;;;13.50;99.90;;;;;;5091630;28;19958;-74
2021/05/10 00:58:46;;;;;;;;;;;13.40;99.90;;;;;;5092811;28;20361;-73
2021/05/10 01:01:12;;;;;;;;;;;13.30;99.90;;;;;;5092809;28;20378;-73
2021/05/10 01:03:37;;;;;;;;;;;13.30;99.90;;;;;;5092922;28;19919;-73
2021/05/10 01:06:03;;;;;;;;;;;13.20;99.90;;;;;;5091610;28;19935;-73
2021/05/10 01:08:28;;;;;;;;;;;13.00;99.90;;;;;;5088178;28;20393;-73
2021/05/10 01:10:54;;;;;;;;;;;12.80;99.90;;;;;;5089476;28;19926;-73
2021/05/10 01:13:19;;;;;;;;;;;12.80;99.90;;;;;;5091808;28;19912;-73
2021/05/10 01:15:50;;;;;;;;;;;12.70;99.90;;;;;;5091510;28;20309;-74
2021/05/10 01:18:16;;;;;;;;;;;12.60;99.90;;;;;;5092169;28;19914;-73
2021/05/10 01:20:44;;;;;;;;;;;12.50;99.90;;;;;;5092308;28;20361;-73
2021/05/10 01:23:09;;;;;;;;;;;12.40;99.90;;;;;;5092283;28;19914;-73
2021/05/10 01:25:35;;;;;;;;;;;12.40;99.90;;;;;;5091500;28;19908;-73
2021/05/10 01:28:01;;;;;;;;;;;12.40;99.90;;;;;;5091563;28;20346;-73
2021/05/10 01:30:31;;;;;;;;;;;12.40;99.90;;;;;;5092219;28;20380;-73
2021/05/10 01:32:56;;;;;;;;;;;12.40;99.90;;;;;;5091962;28;19915;-73
2021/05/10 01:35:29;;;;;;;;;;;12.40;99.90;;;;;;5092059;28;19908;-73
2021/05/10 01:37:54;;;;;;;;;;;12.40;99.90;;;;;;5090839;28;19974;-73
2021/05/10 01:40:20;;;;;;;;;;;12.40;99.90;;;;;;5088767;28;19916;-73
2021/05/10 01:42:45;;;;;;;;;;;12.40;99.90;;;;;;5091365;28;19951;-73
2021/05/10 01:45:11;;;;;;;;;;;12.50;99.90;;;;;;5091958;28;20387;-73
2021/05/10 01:47:37;;;;;;;;;;;12.50;99.90;;;;;;5090816;28;19981;-73
2021/05/10 01:50:15;;;;;;;;;;;12.50;99.90;;;;;;5091796;28;19999;-72
2021/05/10 01:52:40;;;;;;;;;;;12.50;99.90;;;;;;5091399;28;19944;-73
2021/05/10 01:55:06;;;;;;;;;;;12.50;99.90;;;;;;5090008;28;19951;-73
2021/05/10 01:57:32;;;;;;;;;;;12.40;99.90;;;;;;5084179;28;19916;-73
2021/05/10 01:59:57;;;;;;;;;;;12.40;99.90;;;;;;5071394;28;19908;-73
2021/05/10 02:02:23;;;;;;;;;;;12.40;99.90;;;;;;5070956;28;20265;-73
2021/05/10 02:05:07;;;;;;;;;;;12.50;99.90;;;;;;5071345;28;19908;-73
2021/05/10 02:07:33;;;;;;;;;;;12.50;99.90;;;;;;5070274;28;19908;-73
2021/05/10 02:09:59;;;;;;;;;;;12.50;99.90;;;;;;5071245;28;19961;-73
2021/05/10 02:12:25;;;;;;;;;;;12.40;99.90;;;;;;5089302;28;20266;-73
2021/05/10 02:14:51;;;;;;;;;;;12.40;99.90;;;;;;5091234;28;19934;-73
2021/05/10 02:17:16;;;;;;;;;;;12.30;99.90;;;;;;5090439;28;19999;-73
2021/05/10 02:19:42;;;;;;;;;;;12.20;99.90;;;;;;5091428;28;19908;-73
2021/05/10 02:22:07;;;;;;;;;;;12.20;99.90;;;;;;5091576;28;19912;-73
2021/05/10 02:24:36;;;;;;;;;;;12.20;99.90;;;;;;5091274;28;20384;-73
2021/05/10 02:27:02;;;;;;;;;;;12.20;99.90;;;;;;5090336;28;19922;-73
2021/05/10 02:29:27;;;;;;;;;;;12.10;99.90;;;;;;5091007;28;19912;-73
2021/05/10 02:31:53;;;;;;;;;;;12.10;99.90;;;;;;5091489;28;20421;-73
2021/05/10 02:34:18;;;;;;;;;;;12.10;99.90;;;;;;5091223;28;20592;-73
2021/05/10 02:36:44;;;;;;;;;;;12.10;99.90;;;;;;5090267;28;19915;-74
2021/05/10 02:39:09;;;;;;;;;;;12.10;99.90;;;;;;5090996;28;19920;-73
2021/05/10 02:41:35;;;;;;;;;;;12.00;99.90;;;;;;5088390;28;20003;-74
2021/05/10 02:44:00;;;;;;;;;;;11.90;99.90;;;;;;5090849;28;19916;-73
2021/05/10 02:46:26;;;;;;;;;;;11.90;99.90;;;;;;5089788;28;19908;-73
2021/05/10 02:48:51;;;;;;;;;;;11.90;99.90;;;;;;5090329;28;20441;-73
2021/05/10 02:51:17;;;;;;;;;;;11.90;99.90;;;;;;5090798;28;19920;-73
2021/05/10 02:53:42;;;;;;;;;;;11.80;99.90;;;;;;5090666;28;20337;-73
2021/05/10 02:56:08;;;;;;;;;;;11.90;99.90;;;;;;5089680;28;19922;-73
2021/05/10 02:58:33;;;;;;;;;;;11.80;99.90;;;;;;5090563;28;19908;-73
2021/05/10 03:00:59;;;;;;;;;;;11.80;99.90;;;;;;5090813;28;19912;-74
2021/05/10 03:03:24;;;;;;;;;;;11.70;99.90;;;;;;5090255;28;19961;-73
2021/05/10 03:05:51;;;;;;;;;;;11.70;99.90;;;;;;5089484;28;19912;-72
2021/05/10 03:08:17;;;;;;;;;;;11.70;99.90;;;;;;5090617;28;20105;-73
2021/05/10 03:10:42;;;;;;;;;;;11.50;99.90;;;;;;5087775;28;20022;-73
2021/05/10 03:13:08;;;;;;;;;;;11.40;99.90;;;;;;5090110;28;19912;-73
2021/05/10 03:15:33;;;;;;;;;;;11.40;99.90;;;;;;5093438;28;19908;-72
2021/05/10 03:17:59;;;;;;;;;;;11.40;99.90;;;;;;5093651;28;20387;-72
2021/05/10 03:20:24;;;;;;;;;;;11.40;99.90;;;;;;5094667;28;19948;-73
2021/05/10 03:22:52;;;;;;;;;;;11.40;99.90;;;;;;5093362;28;20003;-74
2021/05/10 03:25:18;;;;;;;;;;;11.30;99.90;;;;;;5094683;28;19957;-73
2021/05/10 03:27:44;;;;;;;;;;;11.30;99.90;;;;;;5093297;28;19999;-73
2021/05/10 03:30:13;;;;;;;;;;;11.30;99.90;;;;;;5094345;28;19990;-73
2021/05/10 03:32:39;;;;;;;;;;;11.30;99.90;;;;;;5094490;28;20495;-73
2021/05/10 03:35:05;;;;;;;;;;;11.40;99.90;;;;;;5094426;28;19912;-73
2021/05/10 03:37:31;;;;;;;;;;;11.30;99.90;;;;;;5093002;28;19919;-73
2021/05/10 03:39:56;;;;;;;;;;;11.40;99.90;;;;;;5094153;28;20345;-73
2021/05/10 03:42:22;;;;;;;;;;;11.50;99.90;;;;;;5091587;28;20277;-73
2021/05/10 03:44:47;;;;;;;;;;;11.50;99.90;;;;;;5093986;28;19908;-73
2021/05/10 03:47:13;;;;;;;;;;;11.70;99.90;;;;;;5093087;28;20277;-73
2021/05/10 03:49:38;;;;;;;;;;;11.80;99.90;;;;;;5094085;28;20366;-73
2021/05/10 03:52:04;;;;;;;;;;;11.90;99.90;;;;;;5094223;28;19951;-73
2021/05/10 03:54:29;;;;;;;;;;;12.00;99.90;;;;;;5094018;28;19931;-74
2021/05/10 03:56:55;;;;;;;;;;;12.10;99.90;;;;;;5093160;28;19955;-72
2021/05/10 03:59:20;;;;;;;;;;;12.20;99.90;;;;;;5092516;28;19908;-73
2021/05/10 04:01:46;;;;;;;;;;;12.30;99.90;;;;;;5093802;28;20277;-73
2021/05/10 04:04:26;;;;;;;;;;;12.40;99.90;;;;;;5093930;28;19992;-73
2021/05/10 04:10:08;;;;;;;;;;;12.50;99.90;;;;;;5094031;28;19919;-73
2021/05/10 04:14:47;;;;;;;;;;;12.90;99.90;;;;;;5093498;28;19923;-73
2021/05/10 04:17:13;;;;;;;;;;;13.20;99.90;;;;;;5092740;28;19908;-73
2021/05/10 04:19:38;;;;;;;;;;;13.50;99.90;;;;;;5093434;28;19915;-73
2021/05/10 04:22:04;;;;;;;;;;;13.80;99.90;;;;;;5093651;28;19943;-73
2021/05/10 04:24:29;;;;;;;;;;;14.00;99.90;;;;;;5091850;28;19912;-73
2021/05/10 04:26:55;;;;;;;;;;;14.20;99.90;;;;;;5092498;28;19909;-72
2021/05/10 04:29:20;;;;;;;;;;;14.30;99.90;;;;;;5093252;28;20439;-73
2021/05/10 04:31:46;;;;;;;;;;;14.50;99.90;;;;;;5093465;28;19919;-73
2021/05/10 04:34:11;;;;;;;;;;;14.60;99.90;;;;;;5093290;28;19915;-73
2021/05/10 04:36:37;;;;;;;;;;;14.70;99.90;;;;;;5092169;28;20384;-72
2021/05/10 04:39:02;;;;;;;;;;;14.80;99.90;;;;;;5093257;28;19916;-72
2021/05/10 04:41:28;;;;;;;;;;;14.90;99.90;;;;;;5090068;28;20748;-73
2021/05/10 04:43:53;;;;;;;;;;;15.00;99.90;;;;;;5092820;28;20262;-73
2021/05/10 04:46:19;;;;;;;;;;;15.00;99.90;;;;;;5091882;28;19999;-73
2021/05/10 04:48:44;;;;;;;;;;;15.10;99.90;;;;;;5092865;28;20315;-73
2021/05/10 04:51:10;;;;;;;;;;;15.10;99.90;;;;;;5092740;28;19915;-73
2021/05/10 04:53:35;;;;;;;;;;;15.10;99.90;;;;;;5092444;28;19912;-73
2021/05/10 04:56:01;;;;;;;;;;;15.30;99.90;;;;;;5091406;28;20412;-73
2021/05/10 04:58:26;;;;;;;;;;;15.40;99.90;;;;;;5092425;28;19955;-73
2021/05/10 05:00:52;;;;;;;;;;;15.60;99.90;;;;;;5092826;28;19908;-73
2021/05/10 05:03:17;;;;;;;;;;;15.60;99.90;;;;;;5092615;28;20001;-73
2021/05/10 05:05:43;;;;;;;;;;;15.70;99.90;;;;;;5091292;28;20271;-73
2021/05/10 05:08:08;;;;;;;;;;;15.80;99.90;;;;;;5092467;28;19912;-73
2021/05/10 05:10:34;;;;;;;;;;;15.80;99.90;;;;;;5089410;28;19908;-73
2021/05/10 05:12:59;;;;;;;;;;;15.70;99.90;;;;;;5092251;28;19916;-73
2021/05/10 05:15:25;;;;;;;;;;;15.70;99.90;;;;;;5092252;28;19930;-73
2021/05/10 05:17:50;;;;;;;;;;;15.60;99.90;;;;;;5091289;28;19918;-72
2021/05/10 05:20:18;;;;;;;;;;;15.60;99.90;;;;;;5092421;28;20002;-73
2021/05/10 05:22:43;;;;;;;;;;;15.60;99.90;;;;;;5090848;28;20331;-73
2021/05/10 05:25:09;;;;;;;;;;;15.70;99.90;;;;;;5090983;28;20012;-73
2021/05/10 05:27:35;;;;;;;;;;;15.70;99.90;;;;;;5092221;28;19943;-73
2021/05/10 05:30:00;;;;;;;;;;;15.70;99.90;;;;;;5090927;28;20352;-73
2021/05/10 05:32:26;;;;;;;;;;;15.80;99.90;;;;;;5092378;28;19955;-72
2021/05/10 05:34:51;;;;;;;;;;;15.80;99.90;;;;;;5092210;28;19955;-72
2021/05/10 05:37:17;;;;;;;;;;;15.90;99.90;;;;;;5090728;28;19916;-73
2021/05/10 05:39:42;;;;;;;;;;;15.90;99.90;;;;;;5092143;28;19915;-73
2021/05/10 05:42:08;;;;;;;;;;;15.90;99.90;;;;;;5089308;28;19908;-72
2021/05/10 05:44:36;;;;;;;;;;;16.00;99.90;;;;;;5091686;28;20459;-73
2021/05/10 05:47:03;;;;;;;;;;;16.00;99.90;;;;;;5091369;28;20377;-72
2021/05/10 05:49:31;;;;;;;;;;;16.10;99.90;;;;;;5092052;28;19909;-73
2021/05/10 05:51:57;;;;;;;;;;;16.10;99.90;;;;;;5091918;28;19908;-72
2021/05/10 05:54:22;;;;;;;;;;;16.10;99.90;;;;;;5091552;28;20013;-73
2021/05/10 05:56:48;;;;;;;;;;;16.30;99.90;;;;;;5089416;28;19947;-73
2021/05/10 05:59:13;;;;;;;;;;;16.40;99.90;;;;;;5091746;28;19998;-72
2021/05/10 06:01:39;;;;;;;;;;;16.40;99.90;;;;;;5091846;28;20262;-72
2021/05/10 06:04:04;;;;;;;;;;;16.50;99.90;;;;;;5091944;28;19915;-73
2021/05/10 06:06:30;;;;;;;;;;;16.60;99.90;;;;;;5090791;28;19908;-72
2021/05/10 06:08:56;;;;;;;;;;;16.70;99.90;;;;;;5091545;28;19915;-73
2021/05/10 06:11:22;;;;;;;;;;;16.80;99.90;;;;;;5088831;28;19908;-72
2021/05/10 06:13:47;;;;;;;;;;;16.90;99.90;;;;;;5091099;28;19962;-73
2021/05/10 06:16:13;;;;;;;;;;;17.00;99.90;;;;;;5090668;28;19908;-72
2021/05/10 06:18:38;;;;;;;;;;;17.10;99.90;;;;;;5091456;28;19908;-72
2021/05/10 06:21:05;;;;;;;;;;;17.20;99.90;;;;;;5091470;28;19998;-72
2021/05/10 06:23:31;;;;;;;;;;;17.20;99.90;;;;;;5090295;28;20326;-73
2021/05/10 06:25:57;;;;;;;;;;;17.30;99.90;;;;;;5090428;28;19912;-73
2021/05/10 06:28:23;;;;;;;;;;;17.30;99.90;;;;;;5091410;28;19915;-73
2021/05/10 06:30:48;;;;;;;;;;;17.40;99.90;;;;;;5091000;28;20274;-73
2021/05/10 06:33:14;;;;;;;;;;;17.50;99.90;;;;;;5091270;28;19916;-73
2021/05/10 06:35:39;;;;;;;;;;;17.60;99.90;;;;;;5088294;28;20246;-72
2021/05/10 06:38:05;;;;;;;;;;;17.80;99.90;;;;;;5089179;28;19916;-72
2021/05/10 06:40:30;;;;;;;;;;;17.90;99.90;;;;;;5088384;28;20240;-73
2021/05/10 06:42:56;;;;;;;;;;;18.10;99.90;;;;;;5090316;28;19995;-73
2021/05/10 06:45:21;;;;;;;;;;;18.30;99.90;;;;;;5090772;28;19912;-73
2021/05/10 06:47:48;;;;;;;;;;;18.50;99.90;;;;;;5089382;28;19912;-72
2021/05/10 06:50:14;;;;;;;;;;;18.70;99.90;;;;;;5085745;28;20455;-72
2021/05/10 06:52:39;;;;;;;;;;;18.80;99.90;;;;;;5088562;28;19995;-72
2021/05/10 06:55:05;;;;;;;;;;;19.00;99.90;;;;;;5088312;28;19981;-72
2021/05/10 06:57:31;;;;;;;;;;;19.10;99.90;;;;;;5093609;28;19912;-73
2021/05/10 06:59:57;;;;;;;;;;;19.30;99.90;;;;;;5090552;28;19953;-73
2021/05/10 07:02:23;;;;;;;;;;;19.40;99.90;;;;;;5092022;28;19908;-73
2021/05/10 07:04:49;;;;;;;;;;;19.60;99.90;;;;;;5095161;28;19914;-73
2021/05/10 07:07:14;;;;;;;;;;;19.70;99.90;;;;;;5094032;28;19994;-73
2021/05/10 07:09:41;;;;;;;;;;;20.00;99.90;;;;;;5086553;28;20276;-72
2021/05/10 07:12:07;;;;;;;;;;;20.20;99.50;;;;;;5090676;28;19973;-72
2021/05/10 07:14:32;;;;;;;;;;;20.40;97.30;;;;;;5093230;28;19925;-73
2021/05/10 07:16:58;;;;;;;;;;;20.70;97.60;;;;;;5092618;28;20327;-73
2021/05/10 07:19:23;;;;;;;;;;;21.10;94.60;;;;;;5090219;28;19930;-73
2021/05/10 07:21:49;;;;;;;;;;;21.70;95.80;;;;;;5094387;28;19919;-73
2021/05/10 07:24:15;;;;;;;;;;;22.30;93.90;;;;;;5093012;28;20364;-73
2021/05/10 07:26:40;;;;;;;;;;;22.80;93.30;;;;;;5091874;28;19998;-73
2021/05/10 07:29:06;;;;;;;;;;;23.50;92.70;;;;;;5092275;28;19915;-73
2021/05/10 07:31:31;;;;;;;;;;;23.90;90.70;;;;;;5091362;28;19951;-73
2021/05/10 07:33:57;;;;;;;;;;;23.90;87.60;;;;;;5091894;28;20395;-73
2021/05/10 07:36:22;;;;;;;;;;;24.20;90.00;;;;;;5089609;28;19908;-73
2021/05/10 07:38:48;;;;;;;;;;;24.30;88.90;;;;;;5090587;28;19916;-73
2021/05/10 07:41:14;;;;;;;;;;;24.70;89.50;;;;;;5086823;28;20011;-73
2021/05/10 07:43:39;;;;;;;;;;;25.20;83.80;;;;;;5092144;28;19961;-73
2021/05/10 07:46:05;;;;;;;;;;;25.20;80.60;;;;;;5090623;28;19912;-73
2021/05/10 07:48:31;;;;;;;;;;;25.10;83.10;;;;;;5089476;28;20351;-73
2021/05/10 07:50:56;;;;;;;;;;;24.90;82.10;;;;;;5107947;28;20380;-73
2021/05/10 07:53:22;;;;;;;;;;;24.50;79.70;;;;;;5114219;28;19972;-72
2021/05/10 07:55:49;;;;;;;;;;;24.00;82.20;;;;;;5113259;28;19916;-73
2021/05/10 07:58:19;;;;;;;;;;;23.60;84.40;;;;;;5115166;28;20176;-72
2021/05/10 08:00:45;;;;;;;;;;;23.20;86.70;;;;;;5114178;28;19907;-73
2021/05/10 08:03:12;;;;;;;;;;;22.90;88.60;;;;;;5114672;28;19908;-72
2021/05/10 08:05:39;;;;;;;;;;;23.00;90.30;;;;;;5097255;28;19916;-75
2021/05/10 08:08:05;;;;;;;;;;;23.20;89.40;;;;;;5093704;28;19953;-73
2021/05/10 08:10:30;;;;;;;;;;;23.20;87.30;;;;;;5086837;28;20370;-73
2021/05/10 08:12:56;;;;;;;;;;;23.30;87.10;;;;;;5093409;28;19908;-73
2021/05/10 08:15:22;;;;;;;;;;;23.40;88.80;;;;;;5088250;28;19985;-74
2021/05/10 08:17:47;;;;;;;;;;;23.50;87.80;;;;;;5092503;28;19931;-73
2021/05/10 08:20:13;;;;;;;;;;;23.60;87.00;;;;;;5096469;28;19911;-73
2021/05/10 08:22:39;;;;;;;;;;;23.60;86.20;;;;;;5104999;28;19912;-76
2021/05/10 08:25:05;;;;;;;;;;;23.60;85.30;;;;;;5092592;28;19915;-73
2021/05/10 08:27:33;;;;;;;;;;;23.60;84.90;;;;;;5092456;28;19991;-73
2021/05/10 08:29:58;;;;;;;;;;;23.60;85.20;;;;;;5093248;28;19908;-73
2021/05/10 08:32:24;;;;;;;;;;;23.50;87.50;;;;;;5093343;28;19923;-73
2021/05/10 08:34:49;;;;;;;;;;;23.50;81.00;;;;;;5093520;28;19946;-73
2021/05/10 08:37:16;;;;;;;;;;;23.40;82.90;;;;;;5092610;28;19991;-73
2021/05/10 08:39:41;;;;;;;;;;;23.30;83.10;;;;;;5093020;28;19954;-73
2021/05/10 08:42:07;;;;;;;;;;;23.20;82.90;;;;;;5090040;28;19912;-73
2021/05/10 08:44:33;;;;;;;;;;;23.30;87.70;;;;;;5092690;28;19961;-73
2021/05/10 08:46:58;;;;;;;;;;;23.30;84.30;;;;;;5092352;28;19915;-73
2021/05/10 08:49:24;;;;;;;;;;;23.20;87.40;;;;;;5093384;28;20382;-75
2021/05/10 08:51:50;;;;;;;;;;;23.20;88.70;;;;;;5093012;28;19916;-72
2021/05/10 08:54:17;;;;;;;;;;;22.80;86.40;;;;;;5092870;28;19916;-73
2021/05/10 08:56:43;;;;;;;;;;;22.50;88.20;;;;;;5091924;28;19908;-73
2021/05/10 08:59:08;;;;;;;;;;;22.30;87.80;;;;;;5092847;28;19915;-74
2021/05/10 09:01:46;;;;;;;;;;;22.10;88.00;;;;;;5088608;28;19943;-73
2021/05/10 09:04:11;;;;;;;;;;;22.10;90.70;;;;;;5080783;28;20693;-73
2021/05/10 09:06:37;;;;;;;;;;;22.20;90.20;;;;;;5083961;28;19916;-74
2021/05/10 09:09:09;;;;;;;;;;;22.00;88.90;;;;;;5086580;28;19995;-75
2021/05/10 09:11:35;;;;;;;;;;;21.90;90.60;;;;;;5080567;28;19909;-73
2021/05/10 09:14:01;;;;;;;;;;;22.00;91.20;;;;;;5090243;28;19955;-74
2021/05/10 09:16:26;;;;;;;;;;;22.10;91.00;;;;;;5082867;28;19937;-74
2021/05/10 09:18:56;;;;;;;;;;;22.20;91.00;;;;;;5091981;28;20634;-73
2021/05/10 09:21:29;;;;;;;;;;;22.40;89.00;;;;;;5088804;28;20337;-73
2021/05/10 09:23:55;;;;;;;;;;;22.40;89.20;;;;;;5091084;28;19942;-73
2021/05/10 09:26:46;;;;;;;;;;;22.70;91.80;;;;;;5080694;28;19909;-73
2021/05/10 09:29:24;;;;;;;;;;;23.20;90.50;;;;;;5086258;28;19915;-73
2021/05/10 09:31:50;;;;;;;;;;;23.70;88.40;;;;;;5091407;28;20032;-73
2021/05/10 09:34:15;;;;;;;;;;;24.30;87.70;;;;;;5091579;28;20460;-74
2021/05/10 09:36:41;;;;;;;;;;;24.90;90.00;;;;;;5090959;28;19912;-73
2021/05/10 09:39:08;;;;;;;;;;;25.10;85.30;;;;;;5090073;28;20032;-73
2021/05/10 09:41:34;;;;;;;;;;;25.20;81.80;;;;;;5088581;28;19912;-75
2021/05/10 09:44:06;;;;;;;;;;;25.10;83.70;;;;;;5091804;28;20265;-74
2021/05/10 09:46:43;;;;;;;;;;;25.40;87.10;;;;;;5090913;28;19915;-74
2021/05/10 09:49:08;;;;;;;;;;;25.70;86.30;;;;;;5090265;28;20372;-73
2021/05/10 09:51:34;;;;;;;;;;;25.90;79.40;;;;;;5091514;28;20002;-73
2021/05/10 09:54:08;;;;;;;;;;;25.60;81.50;;;;;;5090872;28;20288;-73
2021/05/10 09:56:34;;;;;;;;;;;25.30;81.90;;;;;;5090403;28;20331;-74
2021/05/10 09:59:01;;;;;;;;;;;25.30;84.20;;;;;;5091264;28;19984;-73
2021/05/10 10:01:46;;;;;;;;;;;25.30;85.60;;;;;;5089866;28;20369;-73
2021/05/10 10:04:13;;;;;;;;;;;25.40;82.40;;;;;;5090582;28;19954;-73
2021/05/10 10:06:39;;;;;;;;;;;25.30;80.40;;;;;;5079287;28;20011;-72
2021/05/10 10:09:05;;;;;;;;;;;25.30;80.20;;;;;;5091169;28;19951;-73
2021/05/10 10:11:31;;;;;;;;;;;25.30;83.60;;;;;;5091073;28;19915;-72
2021/05/10 10:13:58;;;;;;;;;;;25.30;82.20;;;;;;5090885;28;19912;-73
2021/05/10 10:16:28;;;;;;;;;;;25.20;83.40;;;;;;5089799;28;19908;-74
2021/05/10 10:18:55;;;;;;;;;;;25.00;81.20;;;;;;5090798;28;19908;-72
2021/05/10 10:21:21;;;;;;;;;;;24.70;85.00;;;;;;5089610;28;19909;-73
2021/05/10 10:23:53;;;;;;;;;;;24.40;84.10;;;;;;5090241;28;19915;-73
2021/05/10 10:26:19;;;;;;;;;;;24.00;84.80;;;;;;5089846;28;19908;-72
2021/05/10 10:28:48;;;;;;;;;;;23.90;89.40;;;;;;5090801;28;20288;-73
2021/05/10 10:31:16;;;;;;;;;;;24.10;89.40;;;;;;5090689;28;19915;-72
2021/05/10 10:33:46;;;;;;;;;;;24.30;88.90;;;;;;5090598;28;20487;-72
2021/05/10 10:36:21;;;;;;;;;;;24.70;88.70;;;;;;5090378;28;19915;-71
2021/05/10 10:38:46;;;;;;;;;;;24.70;84.60;;;;;;5091064;28;19923;-72
2021/05/10 10:41:18;;;;;;;;;;;24.60;85.30;;;;;;5088145;28;19912;-71
2021/05/10 10:43:43;;;;;;;;;;;24.30;85.80;;;;;;5090455;28;19908;-71
2021/05/10 10:46:16;;;;;;;;;;;23.90;83.80;;;;;;5086823;28;19994;-74
2021/05/10 10:48:42;;;;;;;;;;;23.40;86.00;;;;;;5090939;28;19908;-73
2021/05/10 10:51:07;;;;;;;;;;;22.70;87.10;;;;;;5091114;28;19996;-73
2021/05/10 10:53:43;;;;;;;;;;;22.30;88.80;;;;;;5090828;28;19919;-73
2021/05/10 10:56:08;;;;;;;;;;;21.90;88.80;;;;;;5090093;28;19908;-73
2021/05/10 10:58:34;;;;;;;;;;;21.70;90.10;;;;;;5090943;28;19999;-72
2021/05/10 11:01:01;;;;;;;;;;;21.50;90.80;;;;;;5090943;28;19931;-72
2021/05/10 11:03:27;;;;;;;;;;;21.50;90.70;;;;;;5090985;28;20054;-73
2021/05/10 11:05:53;;;;;;;;;;;21.40;90.60;;;;;;5087643;28;19912;-74
2021/05/10 11:08:37;;;;;;;;;;;21.30;90.60;;;;;;5090908;28;19914;-73
2021/05/10 11:11:03;;;;;;;;;;;21.10;90.30;;;;;;5087591;28;19956;-73
2021/05/10 11:13:31;;;;;;;;;;;20.90;90.60;;;;;;5084711;28;20392;-73
2021/05/10 11:15:57;;;;;;;;;;;20.80;91.00;;;;;;5085129;28;19926;-73
2021/05/10 11:18:36;;;;;;;;;;;20.70;90.90;;;;;;5090503;28;19908;-73
2021/05/10 11:21:08;;;;;;;;;;;20.60;91.40;;;;;;5090584;28;20450;-74
2021/05/10 11:23:34;;;;;;;;;;;20.50;90.90;;;;;;5090232;28;19957;-74
2021/05/10 11:26:04;;;;;;;;;;;20.40;91.30;;;;;;5089469;28;19915;-72
2021/05/10 11:28:30;;;;;;;;;;;20.30;91.50;;;;;;5090342;28;19978;-72
2021/05/10 11:30:56;;;;;;;;;;;20.30;92.20;;;;;;5090485;28;20393;-72
2021/05/10 11:33:41;;;;;;;;;;;20.20;91.70;;;;;;5083924;28;19958;-74
2021/05/10 11:36:06;;;;;;;;;;;20.10;92.30;;;;;;5087651;28;19954;-72
2021/05/10 11:38:32;;;;;;;;;;;20.10;92.00;;;;;;5093895;28;19963;-74
2021/05/10 11:40:57;;;;;;;;;;;20.00;92.50;;;;;;5091349;28;19912;-71
2021/05/10 11:43:23;;;;;;;;;;;19.90;91.80;;;;;;5093847;28;19908;-72
2021/05/10 11:45:49;;;;;;;;;;;19.70;92.50;;;;;;5092296;28;19961;-72
2021/05/10 11:48:15;;;;;;;;;;;19.60;92.50;;;;;;5090062;28;19915;-73
2021/05/10 11:50:47;;;;;;;;;;;19.40;92.20;;;;;;5084351;28;19908;-73
2021/05/10 11:53:15;;;;;;;;;;;19.30;92.90;;;;;;5084717;28;19913;-75
2021/05/10 11:55:59;;;;;;;;;;;19.20;93.00;;;;;;5089327;28;19912;-72
2021/05/10 11:58:43;;;;;;;;;;;19.10;92.80;;;;;;5073720;28;20389;-72
2021/05/10 12:01:08;;;;;;;;;;;19.00;92.90;;;;;;5074075;28;19942;-73
2021/05/10 12:03:34;;;;;;;;;;;19.00;93.20;;;;;;5073532;28;20460;-70
2021/05/10 12:05:59;;;;;;;;;;;19.00;93.40;;;;;;5086906;28;19999;-72
2021/05/10 12:08:36;;;;;;;;;;;19.00;93.50;;;;;;5093289;28;19962;-72
2021/05/10 12:11:03;;;;;;;;;;;18.90;93.50;;;;;;5088919;28;19908;-72
2021/05/10 12:13:29;;;;;;;;;;;18.90;93.20;;;;;;5081563;28;19916;-72
2021/05/10 12:16:05;;;;;;;;;;;18.90;93.80;;;;;;5082028;28;19912;-72
2021/05/10 12:18:30;;;;;;;;;;;18.90;93.20;;;;;;5089320;28;19915;-72
2021/05/10 12:20:56;;;;;;;;;;;18.90;93.30;;;;;;5088722;28;20455;-71
2021/05/10 12:23:21;;;;;;;;;;;18.90;93.00;;;;;;5087920;28;19956;-72
2021/05/10 12:25:47;;;;;;;;;;;19.00;92.90;;;;;;5098930;28;20395;-73
2021/05/10 12:28:16;;;;;;;;;;;19.00;93.90;;;;;;5084558;28;19912;-72
2021/05/10 12:30:45;;;;;;;;;;;19.00;93.20;;;;;;5080811;28;19916;-76
2021/05/10 12:33:24;;;;;;;;;;;19.20;93.50;;;;;;5091381;28;20002;-74
2021/05/10 12:35:51;;;;;;;;;;;19.20;93.00;;;;;;5090461;28;19915;-72
2021/05/10 12:38:27;;;;;;;;;;;19.20;93.40;;;;;;5084618;28;19970;-72
2021/05/10 12:40:52;;;;;;;;;;;19.20;92.90;;;;;;5083886;28;20319;-76
2021/05/10 12:43:19;;;;;;;;;;;19.20;93.70;;;;;;5084886;28;19916;-73
2021/05/10 12:45:57;;;;;;;;;;;19.30;93.50;;;;;;5085336;28;19916;-73
2021/05/10 12:48:23;;;;;;;;;;;19.50;93.00;;;;;;5090619;28;20391;-71
2021/05/10 12:50:49;;;;;;;;;;;19.60;93.90;;;;;;5092548;28;19915;-72
2021/05/10 12:53:14;;;;;;;;;;;19.70;93.40;;;;;;5092621;28;19908;-71
2021/05/10 12:55:41;;;;;;;;;;;19.70;93.00;;;;;;5079386;28;19908;-71
2021/05/10 12:58:17;;;;;;;;;;;19.60;92.90;;;;;;5083733;28;19953;-72
2021/05/10 13:00:42;;;;;;;;;;;19.40;92.80;;;;;;5092287;28;19908;-73
2021/05/10 13:03:23;;;;;;;;;;;19.20;92.60;;;;;;5087367;28;19953;-72
2021/05/10 13:05:49;;;;;;;;;;;19.00;93.00;;;;;;5077326;28;19912;-73
2021/05/10 13:08:14;;;;;;;;;;;18.80;92.90;;;;;;5090789;28;19908;-71
2021/05/10 13:10:40;;;;;;;;;;;18.70;93.50;;;;;;5086267;28;19916;-74
2021/05/10 13:13:13;;;;;;;;;;;18.50;93.10;;;;;;5085277;28;19908;-71
2021/05/10 13:15:42;;;;;;;;;;;18.50;93.60;;;;;;5091160;28;19912;-71
2021/05/10 13:36:29;;;;;;;;;;;18.40;91.90;;;;;;5076003;28;19954;-71
2021/05/10 13:38:55;;;;;;;;;;;18.30;92.10;;;;;;5090020;28;20396;-71
2021/05/10 13:41:23;;;;;;;;;;;18.30;92.20;;;;;;5086905;28;19909;-73
2021/05/10 13:46:26;;;;;;;;;;;18.40;92.10;;;;;;5087229;28;19908;-71
2021/05/10 13:48:52;;;;;;;;;;;18.50;91.90;;;;;;5091920;28;20305;-71
2021/05/10 13:51:17;;;;;;;;;;;18.40;91.40;;;;;;5091520;28;19912;-71
2021/05/10 13:53:43;;;;;;;;;;;18.40;91.90;;;;;;5091349;28;20361;-73
2021/05/10 13:56:09;;;;;;;;;;;18.30;90.90;;;;;;5089733;28;19908;-71
2021/05/10 13:58:36;;;;;;;;;;;18.20;91.60;;;;;;5070286;28;19914;-71
2021/05/10 14:01:02;;;;;;;;;;;18.30;91.90;;;;;;5069758;28;19915;-72
2021/05/10 14:03:28;;;;;;;;;;;18.30;91.60;;;;;;5073216;28;19912;-72
2021/05/10 14:05:53;;;;;;;;;;;18.30;92.00;;;;;;5079587;28;19915;-74
2021/05/10 14:08:19;;;;;;;;;;;18.30;91.80;;;;;;5087360;28;20269;-71
2021/05/10 14:10:44;;;;;;;;;;;18.20;91.90;;;;;;5090915;28;19913;-71
2021/05/10 14:13:10;;;;;;;;;;;18.20;91.50;;;;;;5088287;28;19995;-72
2021/05/10 14:15:38;;;;;;;;;;;18.10;91.40;;;;;;5089638;28;19963;-74
2021/05/10 14:18:04;;;;;;;;;;;18.10;91.80;;;;;;5089333;28;19908;-71
2021/05/10 14:21:57;;;;;;;;;;;18.10;92.50;;;;;;5082514;28;19916;-73
2021/05/10 14:23:15;;;;;;;;;;;18.10;92.90;;;;;;5079899;28;19908;-72
2021/05/10 14:25:44;;;;;;;;;;;18.20;92.50;;;;;;5089958;28;20347;-71
2021/05/10 14:28:10;;;;;;;;;;;18.30;92.20;;;;;;5084860;28;20276;-71
2021/05/10 14:30:36;;;;;;;;;;;18.40;92.00;;;;;;5087546;28;19908;-74
2021/05/10 14:33:02;;;;;;;;;;;18.30;91.80;;;;;;5082817;28;20309;-71
2021/05/10 14:35:28;;;;;;;;;;;18.20;92.30;;;;;;5083437;28;19999;-71
2021/05/10 14:37:54;;;;;;;;;;;18.20;92.50;;;;;;5089988;28;20426;-71
2021/05/10 14:40:19;;;;;;;;;;;18.10;92.50;;;;;;5086434;28;19912;-73